createdAt,value
2022-10-21T00:00:26.799Z,80.23
2022-10-21T00:05:28.563Z,80.04
2022-10-21T00:10:30.320Z,80.10
2022-10-21T00:15:32.014Z,81.13
2022-10-21T00:20:35.983Z,80.86
2022-10-21T00:25:40.878Z,80.73
2022-10-21T00:30:46.433Z,80.88
2022-10-21T00:35:57.360Z,80.70
2022-10-21T00:40:59.410Z,81.28
2022-10-21T00:46:05.720Z,82.15
2022-10-21T00:51:11.127Z,81.75
2022-10-21T00:56:18.279Z,82.23
2022-10-21T01:01:21.589Z,82.00
2022-10-21T01:06:25.773Z,82.67
2022-10-21T01:11:30.218Z,83.36
2022-10-21T01:17:02.361Z,83.25
2022-10-21T01:22:12.733Z,82.71
2022-10-21T01:27:40.354Z,82.56
2022-10-21T01:33:06.614Z,82.46
2022-10-21T01:38:20.150Z,82.58
2022-10-21T01:43:33.289Z,82.87
2022-10-21T01:48:44.952Z,82.73
2022-10-21T01:53:55.541Z,83.71
2022-10-21T01:58:59.008Z,83.39
2022-10-21T02:04:04.106Z,83.57
2022-10-21T02:09:05.841Z,82.62
2022-10-21T02:14:18.451Z,82.83
2022-10-21T02:19:20.626Z,82.69
2022-10-21T02:24:26.696Z,82.76
2022-10-21T02:29:35.464Z,82.46
2022-10-21T02:35:01.883Z,82.93
2022-10-21T02:40:16.390Z,83.31
2022-10-21T02:45:18.673Z,83.69
2022-10-21T02:50:20.711Z,83.88
2022-10-21T02:55:22.374Z,83.39
2022-10-21T03:00:23.980Z,84.28
2022-10-21T03:05:25.580Z,83.20
2022-10-21T03:10:27.232Z,82.78
2022-10-21T03:15:28.798Z,82.79
2022-10-21T03:20:30.495Z,83.21
2022-10-21T03:25:35.509Z,83.42
2022-10-21T03:30:37.545Z,82.81
2022-10-21T03:35:39.078Z,82.68
2022-10-21T03:40:40.623Z,82.50
2022-10-21T03:45:42.167Z,82.50
2022-10-21T03:50:43.805Z,83.54
2022-10-21T03:55:45.416Z,82.78
2022-10-21T04:00:52.477Z,83.55
2022-10-21T04:05:54.091Z,83.61
2022-10-21T04:10:57.763Z,83.10
2022-10-21T04:16:01.130Z,83.07
2022-10-21T04:21:02.735Z,82.82
2022-10-21T04:26:05.587Z,83.16
2022-10-21T04:31:07.314Z,83.21
2022-10-21T04:36:08.874Z,82.97
2022-10-21T04:41:10.798Z,83.01
2022-10-21T04:46:17.109Z,82.89
2022-10-21T04:51:18.926Z,82.89
2022-10-21T04:56:20.555Z,82.75
2022-10-21T05:01:22.281Z,82.48
2022-10-21T05:06:23.953Z,82.40
2022-10-21T05:11:25.688Z,82.11
2022-10-21T05:16:27.305Z,82.07
2022-10-21T05:21:28.897Z,82.16
2022-10-21T05:26:31.112Z,82.14
2022-10-21T05:31:32.671Z,82.93
2022-10-21T05:36:34.261Z,82.94
2022-10-21T05:41:35.880Z,83.02
2022-10-21T05:46:37.443Z,82.40
2022-10-21T05:51:39.013Z,82.00
2022-10-21T05:56:42.580Z,82.26
2022-10-21T06:01:44.203Z,82.01
2022-10-21T06:06:45.827Z,81.96
2022-10-21T06:11:47.417Z,81.74
2022-10-21T06:16:48.998Z,82.23
2022-10-21T06:21:50.615Z,81.20
2022-10-21T06:26:52.486Z,82.00
2022-10-21T06:31:54.106Z,81.53
2022-10-21T06:36:55.636Z,81.28
2022-10-21T06:41:57.208Z,81.00
2022-10-21T06:46:58.765Z,81.38
2022-10-21T06:52:00.398Z,81.10
2022-10-21T06:57:02.034Z,80.92
2022-10-21T07:02:03.739Z,80.71
2022-10-21T07:07:05.575Z,80.49
2022-10-21T07:12:07.207Z,80.07
2022-10-21T07:17:09.248Z,79.08
2022-10-21T07:22:10.802Z,79.37
2022-10-21T07:27:12.364Z,79.58
2022-10-21T07:32:14.039Z,79.58
2022-10-21T07:37:15.632Z,79.22
2022-10-21T07:42:17.193Z,79.09
2022-10-21T07:47:19.581Z,79.17
2022-10-21T07:52:21.181Z,78.84
2022-10-21T07:57:22.939Z,78.29
2022-10-21T08:02:24.838Z,78.43
2022-10-21T08:07:26.653Z,77.71
2022-10-21T08:12:28.226Z,78.81
2022-10-21T08:17:29.788Z,78.50
2022-10-21T08:22:31.334Z,78.00
2022-10-21T08:27:34.361Z,78.06
2022-10-21T08:32:36.164Z,77.57
2022-10-21T08:37:38.137Z,77.00
2022-10-21T08:42:42.629Z,77.40
2022-10-21T08:47:49.740Z,77.28
2022-10-21T08:52:58.776Z,76.78
2022-10-21T08:58:01.345Z,76.31
2022-10-21T09:03:06.220Z,75.98
2022-10-21T09:08:36.956Z,75.56
2022-10-21T09:14:05.150Z,74.92
2022-10-21T09:19:32.158Z,75.45
2022-10-21T09:24:45.776Z,74.70
2022-10-21T09:29:56.860Z,74.87
2022-10-21T09:35:06.739Z,73.97
2022-10-21T09:40:24.004Z,72.82
2022-10-21T09:45:34.194Z,72.26
2022-10-21T09:50:36.026Z,70.98
2022-10-21T09:55:39.256Z,68.07
2022-10-21T10:00:50.188Z,64.31
2022-10-21T10:05:52.083Z,65.04
2022-10-21T10:11:10.953Z,65.92
2022-10-21T10:16:12.622Z,62.34
2022-10-21T10:21:22.185Z,64.20
2022-10-21T10:26:32.585Z,65.12
2022-10-21T10:31:35.840Z,63.19
2022-10-21T10:36:39.648Z,63.33
2022-10-21T10:41:45.463Z,63.18
2022-10-21T10:46:57.617Z,63.09
2022-10-21T10:52:11.495Z,63.25
2022-10-21T10:57:18.377Z,62.44
2022-10-21T11:02:48.224Z,61.67
2022-10-21T11:08:00.756Z,60.71
2022-10-21T11:13:05.531Z,61.16
2022-10-21T11:18:26.092Z,61.18
2022-10-21T11:23:40.680Z,60.77
2022-10-21T11:29:23.824Z,62.05
2022-10-21T11:34:25.317Z,61.71
2022-10-21T11:39:57.550Z,60.78
2022-10-21T11:45:07.971Z,60.64
2022-10-21T11:50:27.408Z,61.93
2022-10-21T11:56:07.026Z,61.49
2022-10-21T12:01:24.059Z,61.11
2022-10-21T12:07:02.768Z,61.14
2022-10-21T12:12:17.707Z,61.81
2022-10-21T12:17:21.305Z,62.42
2022-10-21T12:22:26.202Z,61.83
2022-10-21T12:28:04.457Z,62.90
2022-10-21T12:33:12.001Z,62.63
2022-10-21T12:38:49.280Z,62.61
2022-10-21T12:44:03.085Z,62.90
2022-10-21T12:49:32.872Z,63.22
2022-10-21T12:54:51.374Z,63.68
2022-10-21T13:00:28.311Z,62.24
2022-10-21T13:05:39.407Z,63.06
2022-10-21T13:10:41.175Z,63.27
2022-10-21T13:15:46.575Z,63.60
2022-10-21T13:20:48.634Z,63.55
2022-10-21T13:26:13.264Z,63.99
2022-10-21T13:31:21.355Z,63.99
2022-10-21T13:41:43.019Z,64.75
2022-10-21T13:46:44.612Z,65.11
2022-10-21T13:51:46.970Z,64.88
2022-10-21T13:56:48.635Z,65.18
2022-10-21T14:01:56.046Z,66.29
2022-10-21T14:07:08.150Z,66.23
2022-10-21T14:12:22.400Z,65.93
2022-10-21T14:17:27.720Z,66.58
2022-10-21T14:22:31.519Z,66.90
2022-10-21T14:27:35.646Z,67.42
2022-10-21T14:32:38.929Z,67.82
2022-10-21T14:37:44.873Z,68.32
2022-10-21T14:42:51.002Z,69.10
2022-10-21T14:48:06.830Z,69.27
2022-10-21T14:53:19.909Z,69.95
2022-10-21T14:58:26.034Z,70.30
2022-10-21T15:03:42.534Z,70.15
2022-10-21T15:08:56.243Z,71.73
2022-10-21T15:13:58.144Z,72.26
2022-10-21T15:19:07.023Z,71.64
2022-10-21T15:24:18.384Z,71.38
2022-10-21T15:29:22.826Z,74.16
2022-10-21T15:34:24.831Z,74.43
2022-10-21T15:39:26.437Z,73.84
2022-10-21T15:44:34.087Z,74.48
2022-10-21T15:49:38.555Z,76.30
2022-10-21T15:54:40.652Z,80.45
2022-10-21T15:59:42.564Z,82.00
2022-10-21T16:04:45.006Z,80.17
2022-10-21T16:09:47.072Z,86.04
2022-10-21T16:14:48.720Z,86.53
2022-10-21T16:19:50.291Z,88.43
2022-10-21T16:24:51.985Z,88.28
2022-10-21T16:29:53.698Z,87.29
2022-10-21T16:34:55.950Z,89.47
2022-10-21T16:39:58.304Z,90.40
2022-10-21T16:44:59.844Z,88.80
2022-10-21T16:50:03.253Z,90.21
2022-10-21T16:55:06.077Z,92.01
2022-10-21T17:00:08.370Z,93.80
2022-10-21T17:05:13.375Z,94.29
2022-10-21T17:10:15.087Z,94.43
2022-10-21T17:15:16.689Z,92.43
2022-10-21T17:20:18.403Z,92.43
2022-10-21T17:25:20.037Z,91.59
2022-10-21T17:30:21.616Z,92.14
2022-10-21T17:35:23.422Z,91.93
2022-10-21T17:40:26.924Z,93.20
2022-10-21T17:45:28.506Z,94.29
2022-10-21T17:50:31.944Z,95.26
2022-10-21T17:55:33.649Z,96.64
2022-10-21T18:00:35.800Z,94.44
2022-10-21T18:05:40.424Z,96.63
2022-10-21T18:10:42.708Z,96.97
2022-10-21T18:15:44.287Z,95.65
2022-10-21T18:20:46.216Z,93.21
2022-10-21T18:25:48.307Z,93.77
2022-10-21T18:30:49.895Z,94.32
2022-10-21T18:35:51.521Z,94.97
2022-10-21T18:41:01.923Z,94.74
2022-10-21T18:46:04.778Z,96.51
2022-10-21T18:51:08.182Z,97.67
2022-10-21T18:56:15.779Z,95.66
2022-10-21T19:01:19.306Z,95.40
2022-10-21T19:06:29.747Z,95.07
2022-10-21T19:11:31.496Z,95.25
2022-10-21T19:16:33.102Z,96.15
2022-10-21T19:21:34.959Z,97.21
2022-10-21T19:26:39.124Z,98.65
2022-10-21T19:31:41.579Z,96.95
2022-10-21T19:36:43.204Z,96.82
2022-10-21T19:41:45.901Z,97.02
2022-10-21T19:46:47.460Z,96.62
2022-10-21T19:51:49.156Z,96.96
2022-10-21T19:56:52.062Z,97.15
2022-10-21T20:01:53.617Z,96.74
2022-10-21T20:06:56.477Z,96.89
2022-10-21T20:11:58.094Z,95.99
2022-10-21T20:16:59.653Z,96.57
2022-10-21T20:22:01.213Z,96.95
2022-10-21T20:27:02.759Z,96.45
2022-10-21T20:32:04.357Z,95.94
2022-10-21T20:37:06.054Z,97.33
2022-10-21T20:42:07.680Z,97.02
2022-10-21T20:47:09.277Z,97.93
2022-10-21T20:52:10.831Z,98.14
2022-10-21T20:57:12.394Z,97.92
2022-10-21T21:02:14.096Z,98.25
2022-10-21T21:07:15.753Z,100.00
2022-10-21T21:12:17.301Z,99.11
2022-10-21T21:17:18.885Z,98.96
2022-10-21T21:22:21.161Z,99.46
2022-10-21T21:27:22.767Z,98.78
2022-10-21T21:32:24.411Z,98.70
2022-10-21T21:37:26.468Z,98.20
2022-10-21T21:42:28.021Z,98.54
2022-10-21T21:47:29.601Z,97.95
2022-10-21T21:52:32.076Z,97.18
2022-10-21T21:57:33.712Z,96.50
2022-10-21T22:02:35.269Z,96.08
2022-10-21T22:07:36.852Z,96.11
2022-10-21T22:12:38.879Z,96.11
2022-10-21T22:17:40.943Z,95.96
2022-10-21T22:22:42.769Z,95.97
2022-10-21T22:27:44.733Z,95.27
2022-10-21T22:32:46.332Z,94.78
2022-10-21T22:37:47.893Z,94.04
2022-10-21T22:42:49.447Z,93.88
2022-10-21T22:47:51.012Z,93.89
2022-10-21T22:52:52.637Z,93.84
2022-10-21T22:57:54.198Z,94.34
2022-10-21T23:02:56.171Z,94.22
2022-10-21T23:07:57.713Z,94.55
2022-10-21T23:12:59.409Z,94.37
2022-10-21T23:18:01.168Z,94.17
2022-10-21T23:23:02.785Z,93.91
2022-10-21T23:28:04.705Z,93.83
2022-10-21T23:33:06.524Z,93.26
2022-10-21T23:38:08.137Z,92.71
2022-10-21T23:43:10.232Z,92.41
2022-10-21T23:48:11.818Z,91.54
2022-10-21T23:53:13.384Z,91.51
2022-10-21T23:58:14.942Z,91.54
